sensor_id;sensor_type;location;lat;lon;timestamp;P1;durP1;ratioP1;P2;durP2;ratioP2
19456;SDS011;9867;48.094;11.478;2023-04-25T00:01:31;3.13;;;2.83;;
19456;SDS011;9867;48.094;11.478;2023-04-25T00:04:00;3.70;;;2.30;;
19456;SDS011;9867;48.094;11.478;2023-04-25T00:06:29;2.40;;;2.13;;
19456;SDS011;9867;48.094;11.478;2023-04-25T00:09:00;2.17;;;2.07;;
19456;SDS011;9867;48.094;11.478;2023-04-25T00:11:29;2.40;;;2.20;;
19456;SDS011;9867;48.094;11.478;2023-04-25T00:13:57;3.47;;;2.30;;
19456;SDS011;9867;48.094;11.478;2023-04-25T00:16:27;3.43;;;2.40;;
19456;SDS011;9867;48.094;11.478;2023-04-25T00:18:57;4.13;;;1.93;;
19456;SDS011;9867;48.094;11.478;2023-04-25T00:21:25;2.50;;;2.20;;
19456;SDS011;9867;48.094;11.478;2023-04-25T00:23:52;2.23;;;2.00;;
19456;SDS011;9867;48.094;11.478;2023-04-25T00:26:22;2.30;;;2.10;;
19456;SDS011;9867;48.094;11.478;2023-04-25T00:28:50;2.50;;;2.30;;
19456;SDS011;9867;48.094;11.478;2023-04-25T00:31:18;2.00;;;1.90;;
19456;SDS011;9867;48.094;11.478;2023-04-25T00:33:47;2.47;;;2.07;;
19456;SDS011;9867;48.094;11.478;2023-04-25T00:36:15;2.50;;;2.30;;
19456;SDS011;9867;48.094;11.478;2023-04-25T00:38:44;2.47;;;2.30;;
19456;SDS011;9867;48.094;11.478;2023-04-25T00:41:12;2.33;;;2.13;;
19456;SDS011;9867;48.094;11.478;2023-04-25T00:43:42;2.40;;;2.20;;
19456;SDS011;9867;48.094;11.478;2023-04-25T00:46:11;2.33;;;2.20;;
19456;SDS011;9867;48.094;11.478;2023-04-25T00:48:39;2.20;;;2.00;;
19456;SDS011;9867;48.094;11.478;2023-04-25T00:51:07;2.50;;;2.20;;
19456;SDS011;9867;48.094;11.478;2023-04-25T00:53:36;2.37;;;2.17;;
19456;SDS011;9867;48.094;11.478;2023-04-25T00:56:04;2.27;;;2.07;;
19456;SDS011;9867;48.094;11.478;2023-04-25T00:58:32;2.90;;;2.03;;
19456;SDS011;9867;48.094;11.478;2023-04-25T01:01:01;2.33;;;2.10;;
19456;SDS011;9867;48.094;11.478;2023-04-25T01:03:30;2.20;;;1.97;;
19456;SDS011;9867;48.094;11.478;2023-04-25T01:06:02;2.33;;;2.13;;
19456;SDS011;9867;48.094;11.478;2023-04-25T01:08:30;2.73;;;2.20;;
19456;SDS011;9867;48.094;11.478;2023-04-25T01:10:58;3.17;;;2.23;;
19456;SDS011;9867;48.094;11.478;2023-04-25T01:13:26;3.07;;;2.30;;
19456;SDS011;9867;48.094;11.478;2023-04-25T01:15:54;4.30;;;2.47;;
19456;SDS011;9867;48.094;11.478;2023-04-25T01:18:23;2.20;;;2.10;;
19456;SDS011;9867;48.094;11.478;2023-04-25T01:20:51;2.53;;;2.33;;
19456;SDS011;9867;48.094;11.478;2023-04-25T01:23:22;2.43;;;2.23;;
19456;SDS011;9867;48.094;11.478;2023-04-25T01:25:51;2.73;;;2.20;;
19456;SDS011;9867;48.094;11.478;2023-04-25T01:28:19;2.37;;;2.10;;
19456;SDS011;9867;48.094;11.478;2023-04-25T01:30:48;3.27;;;2.03;;
19456;SDS011;9867;48.094;11.478;2023-04-25T01:33:16;3.30;;;2.17;;
19456;SDS011;9867;48.094;11.478;2023-04-25T01:35:46;2.77;;;2.07;;
19456;SDS011;9867;48.094;11.478;2023-04-25T01:38:13;2.53;;;2.30;;
19456;SDS011;9867;48.094;11.478;2023-04-25T01:40:43;2.90;;;2.40;;
19456;SDS011;9867;48.094;11.478;2023-04-25T01:43:13;6.37;;;2.30;;
19456;SDS011;9867;48.094;11.478;2023-04-25T01:45:44;5.30;;;2.30;;
19456;SDS011;9867;48.094;11.478;2023-04-25T01:48:13;3.90;;;2.10;;
19456;SDS011;9867;48.094;11.478;2023-04-25T01:50:42;3.40;;;2.17;;
19456;SDS011;9867;48.094;11.478;2023-04-25T01:53:11;2.27;;;2.10;;
19456;SDS011;9867;48.094;11.478;2023-04-25T01:55:44;2.33;;;1.90;;
19456;SDS011;9867;48.094;11.478;2023-04-25T01:58:14;2.60;;;2.40;;
19456;SDS011;9867;48.094;11.478;2023-04-25T02:01:08;2.40;;;2.20;;
19456;SDS011;9867;48.094;11.478;2023-04-25T02:03:45;3.20;;;2.37;;
19456;SDS011;9867;48.094;11.478;2023-04-25T02:06:25;2.47;;;2.27;;
19456;SDS011;9867;48.094;11.478;2023-04-25T02:08:56;2.10;;;2.00;;
19456;SDS011;9867;48.094;11.478;2023-04-25T02:11:25;2.50;;;2.30;;
19456;SDS011;9867;48.094;11.478;2023-04-25T02:14:16;3.50;;;2.43;;
19456;SDS011;9867;48.094;11.478;2023-04-25T02:16:50;2.60;;;2.43;;
19456;SDS011;9867;48.094;11.478;2023-04-25T02:19:18;3.00;;;2.70;;
19456;SDS011;9867;48.094;11.478;2023-04-25T02:21:46;3.33;;;2.70;;
19456;SDS011;9867;48.094;11.478;2023-04-25T02:24:16;2.97;;;2.70;;
19456;SDS011;9867;48.094;11.478;2023-04-25T02:26:45;2.90;;;2.50;;
19456;SDS011;9867;48.094;11.478;2023-04-25T02:29:15;3.20;;;2.40;;
19456;SDS011;9867;48.094;11.478;2023-04-25T02:31:43;2.60;;;2.40;;
19456;SDS011;9867;48.094;11.478;2023-04-25T02:34:11;3.07;;;2.40;;
19456;SDS011;9867;48.094;11.478;2023-04-25T02:36:39;2.60;;;2.40;;
19456;SDS011;9867;48.094;11.478;2023-04-25T02:39:07;2.67;;;2.40;;
19456;SDS011;9867;48.094;11.478;2023-04-25T02:41:35;2.10;;;2.00;;
19456;SDS011;9867;48.094;11.478;2023-04-25T02:44:04;2.50;;;2.30;;
19456;SDS011;9867;48.094;11.478;2023-04-25T02:46:32;4.73;;;2.50;;
19456;SDS011;9867;48.094;11.478;2023-04-25T02:49:05;3.00;;;2.47;;
19456;SDS011;9867;48.094;11.478;2023-04-25T02:51:34;3.27;;;2.53;;
19456;SDS011;9867;48.094;11.478;2023-04-25T02:54:02;2.80;;;2.53;;
19456;SDS011;9867;48.094;11.478;2023-04-25T02:56:34;3.20;;;2.90;;
19456;SDS011;9867;48.094;11.478;2023-04-25T02:59:05;2.60;;;2.40;;
19456;SDS011;9867;48.094;11.478;2023-04-25T03:01:34;2.73;;;2.37;;
19456;SDS011;9867;48.094;11.478;2023-04-25T03:04:02;3.60;;;2.73;;
19456;SDS011;9867;48.094;11.478;2023-04-25T03:06:30;3.17;;;2.80;;
19456;SDS011;9867;48.094;11.478;2023-04-25T03:08:58;5.53;;;3.10;;
19456;SDS011;9867;48.094;11.478;2023-04-25T03:11:26;3.17;;;2.63;;
19456;SDS011;9867;48.094;11.478;2023-04-25T03:13:54;3.23;;;2.53;;
19456;SDS011;9867;48.094;11.478;2023-04-25T03:16:23;3.03;;;2.80;;
19456;SDS011;9867;48.094;11.478;2023-04-25T03:18:51;3.17;;;2.80;;
19456;SDS011;9867;48.094;11.478;2023-04-25T03:21:19;3.23;;;2.90;;
19456;SDS011;9867;48.094;11.478;2023-04-25T03:23:47;6.13;;;3.40;;
19456;SDS011;9867;48.094;11.478;2023-04-25T03:26:15;4.67;;;3.20;;
19456;SDS011;9867;48.094;11.478;2023-04-25T03:28:43;4.10;;;2.60;;
19456;SDS011;9867;48.094;11.478;2023-04-25T03:31:11;2.80;;;2.60;;
19456;SDS011;9867;48.094;11.478;2023-04-25T03:33:41;2.97;;;2.77;;
19456;SDS011;9867;48.094;11.478;2023-04-25T03:36:09;2.87;;;2.60;;
19456;SDS011;9867;48.094;11.478;2023-04-25T03:38:37;2.77;;;2.50;;
19456;SDS011;9867;48.094;11.478;2023-04-25T03:41:05;3.00;;;2.50;;
19456;SDS011;9867;48.094;11.478;2023-04-25T03:43:40;3.17;;;2.53;;
19456;SDS011;9867;48.094;11.478;2023-04-25T03:46:11;3.00;;;2.70;;
19456;SDS011;9867;48.094;11.478;2023-04-25T03:48:42;3.03;;;2.70;;
19456;SDS011;9867;48.094;11.478;2023-04-25T03:51:16;3.53;;;2.53;;
19456;SDS011;9867;48.094;11.478;2023-04-25T03:53:44;3.00;;;2.67;;
19456;SDS011;9867;48.094;11.478;2023-04-25T03:56:30;2.50;;;2.20;;
19456;SDS011;9867;48.094;11.478;2023-04-25T03:59:05;2.87;;;2.67;;
19456;SDS011;9867;48.094;11.478;2023-04-25T04:01:34;3.57;;;2.43;;
19456;SDS011;9867;48.094;11.478;2023-04-25T04:04:04;2.73;;;2.53;;
19456;SDS011;9867;48.094;11.478;2023-04-25T04:06:33;2.23;;;2.13;;
19456;SDS011;9867;48.094;11.478;2023-04-25T04:09:07;3.13;;;2.40;;
19456;SDS011;9867;48.094;11.478;2023-04-25T04:11:38;3.03;;;2.17;;
19456;SDS011;9867;48.094;11.478;2023-04-25T04:14:06;3.13;;;2.20;;
19456;SDS011;9867;48.094;11.478;2023-04-25T04:16:41;2.80;;;2.60;;
19456;SDS011;9867;48.094;11.478;2023-04-25T04:19:10;4.87;;;2.20;;
19456;SDS011;9867;48.094;11.478;2023-04-25T04:21:43;2.60;;;2.30;;
19456;SDS011;9867;48.094;11.478;2023-04-25T04:24:11;2.37;;;2.20;;
19456;SDS011;9867;48.094;11.478;2023-04-25T04:26:49;3.60;;;2.20;;
19456;SDS011;9867;48.094;11.478;2023-04-25T04:29:29;2.60;;;2.40;;
19456;SDS011;9867;48.094;11.478;2023-04-25T04:32:05;2.30;;;2.10;;
19456;SDS011;9867;48.094;11.478;2023-04-25T04:34:36;2.60;;;2.40;;
19456;SDS011;9867;48.094;11.478;2023-04-25T04:37:05;2.90;;;2.40;;
19456;SDS011;9867;48.094;11.478;2023-04-25T04:39:34;2.30;;;2.10;;
19456;SDS011;9867;48.094;11.478;2023-04-25T04:42:09;2.47;;;2.28;;
19456;SDS011;9867;48.094;11.478;2023-04-25T04:44:47;2.60;;;2.40;;
19456;SDS011;9867;48.094;11.478;2023-04-25T04:47:35;4.80;;;2.93;;
19456;SDS011;9867;48.094;11.478;2023-04-25T04:50:28;3.50;;;2.90;;
19456;SDS011;9867;48.094;11.478;2023-04-25T04:53:31;5.00;;;2.27;;
19456;SDS011;9867;48.094;11.478;2023-04-25T04:56:25;3.40;;;3.10;;
19456;SDS011;9867;48.094;11.478;2023-04-25T04:59:33;2.60;;;2.40;;
19456;SDS011;9867;48.094;11.478;2023-04-25T05:02:21;2.70;;;2.50;;
19456;SDS011;9867;48.094;11.478;2023-04-25T05:05:10;3.37;;;2.43;;
19456;SDS011;9867;48.094;11.478;2023-04-25T05:08:04;2.40;;;2.20;;
19456;SDS011;9867;48.094;11.478;2023-04-25T05:10:43;4.33;;;2.70;;
19456;SDS011;9867;48.094;11.478;2023-04-25T05:13:25;2.60;;;2.40;;
19456;SDS011;9867;48.094;11.478;2023-04-25T05:16:12;2.70;;;2.50;;
19456;SDS011;9867;48.094;11.478;2023-04-25T05:18:58;3.57;;;2.70;;
19456;SDS011;9867;48.094;11.478;2023-04-25T05:21:42;2.80;;;2.60;;
19456;SDS011;9867;48.094;11.478;2023-04-25T05:24:30;3.67;;;2.63;;
19456;SDS011;9867;48.094;11.478;2023-04-25T05:27:17;3.10;;;2.50;;
19456;SDS011;9867;48.094;11.478;2023-04-25T05:29:57;4.70;;;2.70;;
19456;SDS011;9867;48.094;11.478;2023-04-25T05:32:51;3.43;;;2.80;;
19456;SDS011;9867;48.094;11.478;2023-04-25T05:35:19;5.10;;;2.60;;
19456;SDS011;9867;48.094;11.478;2023-04-25T05:37:48;3.60;;;2.50;;
19456;SDS011;9867;48.094;11.478;2023-04-25T05:40:20;3.70;;;2.87;;
19456;SDS011;9867;48.094;11.478;2023-04-25T05:43:07;3.17;;;2.77;;
19456;SDS011;9867;48.094;11.478;2023-04-25T05:45:50;5.57;;;2.80;;
19456;SDS011;9867;48.094;11.478;2023-04-25T05:48:42;3.00;;;2.70;;
19456;SDS011;9867;48.094;11.478;2023-04-25T05:51:36;4.77;;;2.87;;
19456;SDS011;9867;48.094;11.478;2023-04-25T05:54:32;3.00;;;2.70;;
19456;SDS011;9867;48.094;11.478;2023-04-25T05:57:02;6.30;;;2.83;;
19456;SDS011;9867;48.094;11.478;2023-04-25T05:59:30;3.60;;;2.87;;
19456;SDS011;9867;48.094;11.478;2023-04-25T06:01:58;4.83;;;2.93;;
19456;SDS011;9867;48.094;11.478;2023-04-25T06:04:29;3.43;;;2.97;;
19456;SDS011;9867;48.094;11.478;2023-04-25T06:06:57;3.63;;;3.33;;
19456;SDS011;9867;48.094;11.478;2023-04-25T06:09:25;3.87;;;3.03;;
19456;SDS011;9867;48.094;11.478;2023-04-25T06:11:53;6.30;;;3.30;;
19456;SDS011;9867;48.094;11.478;2023-04-25T06:14:22;4.33;;;3.57;;
19456;SDS011;9867;48.094;11.478;2023-04-25T06:16:53;3.90;;;3.60;;
19456;SDS011;9867;48.094;11.478;2023-04-25T06:19:21;3.67;;;3.37;;
19456;SDS011;9867;48.094;11.478;2023-04-25T06:21:49;3.60;;;3.30;;
19456;SDS011;9867;48.094;11.478;2023-04-25T06:24:18;4.67;;;3.60;;
19456;SDS011;9867;48.094;11.478;2023-04-25T06:26:46;4.30;;;3.67;;
19456;SDS011;9867;48.094;11.478;2023-04-25T06:29:14;3.90;;;3.60;;
19456;SDS011;9867;48.094;11.478;2023-04-25T06:31:44;4.73;;;3.90;;
19456;SDS011;9867;48.094;11.478;2023-04-25T06:34:12;3.73;;;3.40;;
19456;SDS011;9867;48.094;11.478;2023-04-25T06:36:40;3.50;;;3.20;;
19456;SDS011;9867;48.094;11.478;2023-04-25T06:39:13;3.53;;;3.23;;
19456;SDS011;9867;48.094;11.478;2023-04-25T06:41:41;6.63;;;3.13;;
19456;SDS011;9867;48.094;11.478;2023-04-25T06:44:28;5.13;;;3.30;;
19456;SDS011;9867;48.094;11.478;2023-04-25T06:46:59;5.43;;;3.43;;
19456;SDS011;9867;48.094;11.478;2023-04-25T06:49:28;3.60;;;3.30;;
19456;SDS011;9867;48.094;11.478;2023-04-25T06:51:56;4.83;;;3.30;;
19456;SDS011;9867;48.094;11.478;2023-04-25T06:54:24;3.67;;;3.30;;
19456;SDS011;9867;48.094;11.478;2023-04-25T06:57:00;3.10;;;2.90;;
19456;SDS011;9867;48.094;11.478;2023-04-25T06:59:30;5.13;;;3.47;;
19456;SDS011;9867;48.094;11.478;2023-04-25T07:02:00;4.40;;;3.27;;
19456;SDS011;9867;48.094;11.478;2023-04-25T07:04:28;4.87;;;3.17;;
19456;SDS011;9867;48.094;11.478;2023-04-25T07:06:57;4.37;;;3.33;;
19456;SDS011;9867;48.094;11.478;2023-04-25T07:09:49;3.57;;;3.13;;
19456;SDS011;9867;48.094;11.478;2023-04-25T07:12:17;7.50;;;3.20;;
19456;SDS011;9867;48.094;11.478;2023-04-25T07:14:45;3.50;;;2.90;;
19456;SDS011;9867;48.094;11.478;2023-04-25T07:17:14;5.50;;;3.20;;
19456;SDS011;9867;48.094;11.478;2023-04-25T07:19:42;4.47;;;3.30;;
19456;SDS011;9867;48.094;11.478;2023-04-25T07:22:11;4.70;;;3.37;;
19456;SDS011;9867;48.094;11.478;2023-04-25T07:24:41;5.80;;;3.30;;
19456;SDS011;9867;48.094;11.478;2023-04-25T07:27:12;3.90;;;3.60;;
19456;SDS011;9867;48.094;11.478;2023-04-25T07:29:54;4.70;;;3.60;;
19456;SDS011;9867;48.094;11.478;2023-04-25T07:32:24;4.27;;;3.10;;
19456;SDS011;9867;48.094;11.478;2023-04-25T07:34:53;6.53;;;3.80;;
19456;SDS011;9867;48.094;11.478;2023-04-25T07:37:21;5.13;;;3.87;;
19456;SDS011;9867;48.094;11.478;2023-04-25T07:40:01;4.77;;;4.10;;
19456;SDS011;9867;48.094;11.478;2023-04-25T07:42:32;5.50;;;3.97;;
19456;SDS011;9867;48.094;11.478;2023-04-25T07:45:01;5.83;;;3.60;;
19456;SDS011;9867;48.094;11.478;2023-04-25T07:47:31;4.37;;;3.80;;
19456;SDS011;9867;48.094;11.478;2023-04-25T07:49:59;4.23;;;3.83;;
19456;SDS011;9867;48.094;11.478;2023-04-25T07:52:28;3.90;;;3.50;;
19456;SDS011;9867;48.094;11.478;2023-04-25T07:55:05;4.53;;;3.60;;
19456;SDS011;9867;48.094;11.478;2023-04-25T07:57:42;3.83;;;3.43;;
19456;SDS011;9867;48.094;11.478;2023-04-25T08:00:11;4.67;;;3.57;;
19456;SDS011;9867;48.094;11.478;2023-04-25T08:02:47;4.60;;;3.47;;
19456;SDS011;9867;48.094;11.478;2023-04-25T08:05:17;9.17;;;3.90;;
19456;SDS011;9867;48.094;11.478;2023-04-25T08:07:53;5.77;;;3.67;;
19456;SDS011;9867;48.094;11.478;2023-04-25T08:10:23;3.70;;;3.10;;
19456;SDS011;9867;48.094;11.478;2023-04-25T08:12:52;4.23;;;3.07;;
19456;SDS011;9867;48.094;11.478;2023-04-25T08:15:20;3.50;;;2.83;;
19456;SDS011;9867;48.094;11.478;2023-04-25T08:17:49;4.00;;;3.30;;
19456;SDS011;9867;48.094;11.478;2023-04-25T08:20:17;6.13;;;3.13;;
19456;SDS011;9867;48.094;11.478;2023-04-25T08:22:45;4.30;;;3.07;;
19456;SDS011;9867;48.094;11.478;2023-04-25T08:25:33;3.67;;;3.17;;
19456;SDS011;9867;48.094;11.478;2023-04-25T08:28:01;4.80;;;3.10;;
19456;SDS011;9867;48.094;11.478;2023-04-25T08:30:30;3.73;;;3.43;;
19456;SDS011;9867;48.094;11.478;2023-04-25T08:33:00;5.13;;;3.37;;
19456;SDS011;9867;48.094;11.478;2023-04-25T08:35:46;5.13;;;3.30;;
19456;SDS011;9867;48.094;11.478;2023-04-25T08:38:14;4.87;;;3.50;;
19456;SDS011;9867;48.094;11.478;2023-04-25T08:40:42;4.47;;;3.20;;
19456;SDS011;9867;48.094;11.478;2023-04-25T08:43:15;3.43;;;3.00;;
19456;SDS011;9867;48.094;11.478;2023-04-25T08:45:45;4.17;;;2.80;;
19456;SDS011;9867;48.094;11.478;2023-04-25T08:48:25;3.17;;;2.87;;
19456;SDS011;9867;48.094;11.478;2023-04-25T08:50:56;3.73;;;3.37;;
19456;SDS011;9867;48.094;11.478;2023-04-25T08:53:25;3.07;;;2.43;;
19456;SDS011;9867;48.094;11.478;2023-04-25T08:55:57;3.97;;;2.50;;
19456;SDS011;9867;48.094;11.478;2023-04-25T08:58:31;4.00;;;2.50;;
19456;SDS011;9867;48.094;11.478;2023-04-25T09:01:00;4.10;;;2.50;;
19456;SDS011;9867;48.094;11.478;2023-04-25T09:03:33;3.90;;;2.17;;
19456;SDS011;9867;48.094;11.478;2023-04-25T09:06:02;3.43;;;2.27;;
19456;SDS011;9867;48.094;11.478;2023-04-25T09:08:34;3.93;;;2.50;;
19456;SDS011;9867;48.094;11.478;2023-04-25T09:11:03;4.13;;;2.43;;
19456;SDS011;9867;48.094;11.478;2023-04-25T09:13:32;3.23;;;2.03;;
19456;SDS011;9867;48.094;11.478;2023-04-25T09:16:18;2.23;;;2.00;;
19456;SDS011;9867;48.094;11.478;2023-04-25T09:19:08;3.20;;;2.30;;
19456;SDS011;9867;48.094;11.478;2023-04-25T09:22:04;4.63;;;2.70;;
19456;SDS011;9867;48.094;11.478;2023-04-25T09:24:33;3.60;;;2.10;;
19456;SDS011;9867;48.094;11.478;2023-04-25T09:27:04;2.50;;;2.30;;
19456;SDS011;9867;48.094;11.478;2023-04-25T09:29:33;2.83;;;2.30;;
19456;SDS011;9867;48.094;11.478;2023-04-25T09:32:12;3.10;;;2.20;;
19456;SDS011;9867;48.094;11.478;2023-04-25T09:34:44;3.73;;;2.30;;
19456;SDS011;9867;48.094;11.478;2023-04-25T09:37:17;3.90;;;2.73;;
19456;SDS011;9867;48.094;11.478;2023-04-25T09:40:22;2.90;;;1.97;;
19456;SDS011;9867;48.094;11.478;2023-04-25T09:42:57;3.77;;;2.10;;
19456;SDS011;9867;48.094;11.478;2023-04-25T09:45:29;4.77;;;2.40;;
19456;SDS011;9867;48.094;11.478;2023-04-25T09:47:59;3.90;;;2.43;;
19456;SDS011;9867;48.094;11.478;2023-04-25T09:50:38;2.97;;;2.20;;
19456;SDS011;9867;48.094;11.478;2023-04-25T09:53:09;3.60;;;2.07;;
19456;SDS011;9867;48.094;11.478;2023-04-25T09:55:58;2.87;;;2.10;;
19456;SDS011;9867;48.094;11.478;2023-04-25T09:58:29;3.23;;;2.10;;
19456;SDS011;9867;48.094;11.478;2023-04-25T10:01:00;2.87;;;2.00;;
19456;SDS011;9867;48.094;11.478;2023-04-25T10:03:39;3.07;;;2.13;;
19456;SDS011;9867;48.094;11.478;2023-04-25T10:06:28;2.90;;;2.10;;
19456;SDS011;9867;48.094;11.478;2023-04-25T10:08:57;3.23;;;2.27;;
19456;SDS011;9867;48.094;11.478;2023-04-25T10:11:26;2.37;;;2.13;;
19456;SDS011;9867;48.094;11.478;2023-04-25T10:13:55;2.77;;;1.93;;
19456;SDS011;9867;48.094;11.478;2023-04-25T10:16:23;3.70;;;2.20;;
19456;SDS011;9867;48.094;11.478;2023-04-25T10:18:52;3.60;;;2.27;;
19456;SDS011;9867;48.094;11.478;2023-04-25T10:21:23;2.57;;;2.10;;
19456;SDS011;9867;48.094;11.478;2023-04-25T10:23:55;2.80;;;2.10;;
19456;SDS011;9867;48.094;11.478;2023-04-25T10:26:24;2.30;;;2.10;;
19456;SDS011;9867;48.094;11.478;2023-04-25T10:28:54;2.07;;;1.87;;
19456;SDS011;9867;48.094;11.478;2023-04-25T10:31:23;1.90;;;1.70;;
19456;SDS011;9867;48.094;11.478;2023-04-25T10:33:51;2.73;;;2.00;;
19456;SDS011;9867;48.094;11.478;2023-04-25T10:36:21;2.10;;;1.90;;
19456;SDS011;9867;48.094;11.478;2023-04-25T10:38:50;2.67;;;1.60;;
19456;SDS011;9867;48.094;11.478;2023-04-25T10:41:22;1.80;;;1.57;;
19456;SDS011;9867;48.094;11.478;2023-04-25T10:43:59;2.10;;;1.90;;
19456;SDS011;9867;48.094;11.478;2023-04-25T10:46:28;2.40;;;2.20;;
19456;SDS011;9867;48.094;11.478;2023-04-25T10:48:57;3.00;;;2.03;;
19456;SDS011;9867;48.094;11.478;2023-04-25T10:51:27;3.37;;;2.90;;
19456;SDS011;9867;48.094;11.478;2023-04-25T10:54:16;2.03;;;1.67;;
19456;SDS011;9867;48.094;11.478;2023-04-25T10:56:48;2.07;;;1.80;;
19456;SDS011;9867;48.094;11.478;2023-04-25T10:59:18;4.30;;;3.90;;
19456;SDS011;9867;48.094;11.478;2023-04-25T11:01:51;3.10;;;2.33;;
19456;SDS011;9867;48.094;11.478;2023-04-25T11:04:21;2.37;;;2.17;;
19456;SDS011;9867;48.094;11.478;2023-04-25T11:06:55;2.20;;;2.10;;
19456;SDS011;9867;48.094;11.478;2023-04-25T11:09:33;2.07;;;1.60;;
19456;SDS011;9867;48.094;11.478;2023-04-25T11:12:03;2.33;;;2.00;;
19456;SDS011;9867;48.094;11.478;2023-04-25T11:14:31;2.23;;;2.13;;
19456;SDS011;9867;48.094;11.478;2023-04-25T11:17:00;2.60;;;1.70;;
19456;SDS011;9867;48.094;11.478;2023-04-25T11:19:31;4.57;;;2.00;;
19456;SDS011;9867;48.094;11.478;2023-04-25T11:22:00;2.53;;;1.63;;
19456;SDS011;9867;48.094;11.478;2023-04-25T11:24:30;1.97;;;1.67;;
19456;SDS011;9867;48.094;11.478;2023-04-25T11:26:59;2.87;;;2.53;;
19456;SDS011;9867;48.094;11.478;2023-04-25T11:29:30;2.33;;;2.10;;
19456;SDS011;9867;48.094;11.478;2023-04-25T11:31:59;2.20;;;2.00;;
19456;SDS011;9867;48.094;11.478;2023-04-25T11:34:28;2.60;;;2.10;;
19456;SDS011;9867;48.094;11.478;2023-04-25T11:36:57;4.50;;;2.83;;
19456;SDS011;9867;48.094;11.478;2023-04-25T11:39:26;2.90;;;2.37;;
19456;SDS011;9867;48.094;11.478;2023-04-25T11:41:54;2.47;;;2.23;;
19456;SDS011;9867;48.094;11.478;2023-04-25T11:44:22;2.60;;;2.40;;
19456;SDS011;9867;48.094;11.478;2023-04-25T11:46:53;2.43;;;2.23;;
19456;SDS011;9867;48.094;11.478;2023-04-25T11:49:20;2.10;;;2.00;;
19456;SDS011;9867;48.094;11.478;2023-04-25T11:51:48;2.13;;;2.03;;
19456;SDS011;9867;48.094;11.478;2023-04-25T11:54:16;2.23;;;2.03;;
19456;SDS011;9867;48.094;11.478;2023-04-25T11:56:44;2.00;;;1.80;;
19456;SDS011;9867;48.094;11.478;2023-04-25T11:59:13;1.77;;;1.67;;
19456;SDS011;9867;48.094;11.478;2023-04-25T12:01:47;1.90;;;1.80;;
19456;SDS011;9867;48.094;11.478;2023-04-25T12:04:18;1.80;;;1.70;;
19456;SDS011;9867;48.094;11.478;2023-04-25T12:06:49;1.90;;;1.73;;
19456;SDS011;9867;48.094;11.478;2023-04-25T12:09:19;1.90;;;1.80;;
19456;SDS011;9867;48.094;11.478;2023-04-25T12:11:52;1.57;;;1.50;;
19456;SDS011;9867;48.094;11.478;2023-04-25T12:14:21;1.90;;;1.80;;
19456;SDS011;9867;48.094;11.478;2023-04-25T12:16:51;2.00;;;1.90;;
19456;SDS011;9867;48.094;11.478;2023-04-25T12:19:20;1.90;;;1.80;;
19456;SDS011;9867;48.094;11.478;2023-04-25T12:21:48;2.00;;;1.90;;
19456;SDS011;9867;48.094;11.478;2023-04-25T12:24:24;2.00;;;1.90;;
19456;SDS011;9867;48.094;11.478;2023-04-25T12:26:58;2.10;;;1.87;;
19456;SDS011;9867;48.094;11.478;2023-04-25T12:29:28;2.33;;;2.13;;
19456;SDS011;9867;48.094;11.478;2023-04-25T12:32:07;3.20;;;2.37;;
19456;SDS011;9867;48.094;11.478;2023-04-25T12:34:36;2.67;;;2.17;;
19456;SDS011;9867;48.094;11.478;2023-04-25T12:37:04;2.03;;;1.90;;
19456;SDS011;9867;48.094;11.478;2023-04-25T12:39:32;1.77;;;1.67;;
19456;SDS011;9867;48.094;11.478;2023-04-25T12:42:00;1.73;;;1.63;;
19456;SDS011;9867;48.094;11.478;2023-04-25T12:44:28;1.90;;;1.80;;
19456;SDS011;9867;48.094;11.478;2023-04-25T12:46:56;2.10;;;2.00;;
19456;SDS011;9867;48.094;11.478;2023-04-25T12:49:26;1.83;;;1.70;;
19456;SDS011;9867;48.094;11.478;2023-04-25T12:51:55;1.83;;;1.73;;
19456;SDS011;9867;48.094;11.478;2023-04-25T12:54:23;2.30;;;1.70;;
19456;SDS011;9867;48.094;11.478;2023-04-25T12:56:51;1.80;;;1.70;;
19456;SDS011;9867;48.094;11.478;2023-04-25T12:59:19;1.80;;;1.70;;
19456;SDS011;9867;48.094;11.478;2023-04-25T13:01:47;1.80;;;1.70;;
19456;SDS011;9867;48.094;11.478;2023-04-25T13:04:15;3.43;;;1.53;;
19456;SDS011;9867;48.094;11.478;2023-04-25T13:06:44;1.50;;;1.40;;
19456;SDS011;9867;48.094;11.478;2023-04-25T13:09:13;2.77;;;1.53;;
19456;SDS011;9867;48.094;11.478;2023-04-25T13:11:42;2.23;;;1.20;;
19456;SDS011;9867;48.094;11.478;2023-04-25T13:14:11;1.77;;;1.40;;
19456;SDS011;9867;48.094;11.478;2023-04-25T13:16:39;1.30;;;1.30;;
19456;SDS011;9867;48.094;11.478;2023-04-25T13:19:08;1.37;;;1.37;;
19456;SDS011;9867;48.094;11.478;2023-04-25T13:21:37;1.30;;;1.30;;
19456;SDS011;9867;48.094;11.478;2023-04-25T13:24:05;1.77;;;1.67;;
19456;SDS011;9867;48.094;11.478;2023-04-25T13:26:35;1.70;;;1.50;;
19456;SDS011;9867;48.094;11.478;2023-04-25T13:29:04;1.50;;;1.40;;
19456;SDS011;9867;48.094;11.478;2023-04-25T13:31:31;1.93;;;1.70;;
19456;SDS011;9867;48.094;11.478;2023-04-25T13:33:59;3.40;;;1.63;;
19456;SDS011;9867;48.094;11.478;2023-04-25T13:36:27;2.10;;;1.90;;
19456;SDS011;9867;48.094;11.478;2023-04-25T13:38:55;1.90;;;1.57;;
19456;SDS011;9867;48.094;11.478;2023-04-25T13:41:23;2.20;;;2.07;;
19456;SDS011;9867;48.094;11.478;2023-04-25T13:43:52;2.13;;;2.00;;
19456;SDS011;9867;48.094;11.478;2023-04-25T13:46:20;1.23;;;1.23;;
19456;SDS011;9867;48.094;11.478;2023-04-25T13:48:51;1.20;;;1.20;;
19456;SDS011;9867;48.094;11.478;2023-04-25T13:51:25;1.10;;;1.10;;
19456;SDS011;9867;48.094;11.478;2023-04-25T13:53:56;1.00;;;1.00;;
19456;SDS011;9867;48.094;11.478;2023-04-25T13:56:24;1.23;;;1.23;;
19456;SDS011;9867;48.094;11.478;2023-04-25T13:58:54;1.00;;;1.00;;
19456;SDS011;9867;48.094;11.478;2023-04-25T14:01:23;1.07;;;1.07;;
19456;SDS011;9867;48.094;11.478;2023-04-25T14:03:51;1.10;;;1.10;;
19456;SDS011;9867;48.094;11.478;2023-04-25T14:06:19;1.70;;;1.60;;
19456;SDS011;9867;48.094;11.478;2023-04-25T14:08:50;2.00;;;1.90;;
19456;SDS011;9867;48.094;11.478;2023-04-25T14:11:18;1.57;;;1.50;;
19456;SDS011;9867;48.094;11.478;2023-04-25T14:13:46;2.00;;;1.90;;
19456;SDS011;9867;48.094;11.478;2023-04-25T14:16:17;1.57;;;1.47;;
19456;SDS011;9867;48.094;11.478;2023-04-25T14:18:45;1.60;;;1.50;;
19456;SDS011;9867;48.094;11.478;2023-04-25T14:21:13;1.40;;;1.30;;
19456;SDS011;9867;48.094;11.478;2023-04-25T14:23:41;1.30;;;1.30;;
19456;SDS011;9867;48.094;11.478;2023-04-25T14:26:08;1.20;;;1.20;;
19456;SDS011;9867;48.094;11.478;2023-04-25T14:28:38;1.30;;;1.30;;
19456;SDS011;9867;48.094;11.478;2023-04-25T14:31:06;1.23;;;1.23;;
19456;SDS011;9867;48.094;11.478;2023-04-25T14:33:36;1.13;;;1.13;;
19456;SDS011;9867;48.094;11.478;2023-04-25T14:36:08;1.30;;;1.30;;
19456;SDS011;9867;48.094;11.478;2023-04-25T14:38:36;1.50;;;1.40;;
19456;SDS011;9867;48.094;11.478;2023-04-25T14:41:04;1.37;;;1.30;;
19456;SDS011;9867;48.094;11.478;2023-04-25T14:43:32;1.20;;;1.20;;
19456;SDS011;9867;48.094;11.478;2023-04-25T14:46:00;1.10;;;1.10;;
19456;SDS011;9867;48.094;11.478;2023-04-25T14:48:28;1.13;;;1.13;;
19456;SDS011;9867;48.094;11.478;2023-04-25T14:50:57;1.17;;;1.17;;
19456;SDS011;9867;48.094;11.478;2023-04-25T14:53:26;1.23;;;1.20;;
19456;SDS011;9867;48.094;11.478;2023-04-25T14:55:54;1.43;;;1.40;;
19456;SDS011;9867;48.094;11.478;2023-04-25T14:58:22;1.50;;;1.40;;
19456;SDS011;9867;48.094;11.478;2023-04-25T15:00:50;1.30;;;1.30;;
19456;SDS011;9867;48.094;11.478;2023-04-25T15:03:20;1.60;;;1.53;;
19456;SDS011;9867;48.094;11.478;2023-04-25T15:05:48;2.50;;;1.60;;
19456;SDS011;9867;48.094;11.478;2023-04-25T15:08:21;1.80;;;1.70;;
19456;SDS011;9867;48.094;11.478;2023-04-25T15:10:52;1.67;;;1.57;;
19456;SDS011;9867;48.094;11.478;2023-04-25T15:13:20;1.67;;;1.67;;
19456;SDS011;9867;48.094;11.478;2023-04-25T15:15:48;1.70;;;1.60;;